sensor_id;sensor_type;location;lat;lon;timestamp;P1;durP1;ratioP1;P2;durP2;ratioP2
26484;SDS011;18083;50.560;7.262;2024-02-04T00:02:08;1.33;;;0.60;;
26484;SDS011;18083;50.560;7.262;2024-02-04T00:04:37;1.90;;;0.47;;
26484;SDS011;18083;50.560;7.262;2024-02-04T00:07:06;2.53;;;0.87;;
26484;SDS011;18083;50.560;7.262;2024-02-04T00:09:33;1.37;;;0.83;;
26484;SDS011;18083;50.560;7.262;2024-02-04T00:12:00;1.37;;;1.03;;
26484;SDS011;18083;50.560;7.262;2024-02-04T00:14:29;1.63;;;1.00;;
26484;SDS011;18083;50.560;7.262;2024-02-04T00:16:57;3.10;;;1.47;;
26484;SDS011;18083;50.560;7.262;2024-02-04T00:19:25;1.77;;;1.23;;
26484;SDS011;18083;50.560;7.262;2024-02-04T00:21:53;3.33;;;0.93;;
26484;SDS011;18083;50.560;7.262;2024-02-04T00:24:20;3.40;;;1.20;;
26484;SDS011;18083;50.560;7.262;2024-02-04T00:26:47;1.10;;;1.00;;
26484;SDS011;18083;50.560;7.262;2024-02-04T00:29:15;1.60;;;1.20;;
26484;SDS011;18083;50.560;7.262;2024-02-04T00:31:42;2.10;;;2.00;;
26484;SDS011;18083;50.560;7.262;2024-02-04T00:34:09;2.43;;;1.27;;
26484;SDS011;18083;50.560;7.262;2024-02-04T00:36:36;1.53;;;1.13;;
26484;SDS011;18083;50.560;7.262;2024-02-04T00:39:04;3.30;;;2.40;;
26484;SDS011;18083;50.560;7.262;2024-02-04T00:41:33;2.50;;;1.97;;
26484;SDS011;18083;50.560;7.262;2024-02-04T00:44:00;2.50;;;1.87;;
26484;SDS011;18083;50.560;7.262;2024-02-04T00:46:28;4.67;;;2.50;;
26484;SDS011;18083;50.560;7.262;2024-02-04T00:48:55;2.63;;;2.37;;
26484;SDS011;18083;50.560;7.262;2024-02-04T00:51:22;4.40;;;2.43;;
26484;SDS011;18083;50.560;7.262;2024-02-04T00:53:50;2.97;;;2.03;;
26484;SDS011;18083;50.560;7.262;2024-02-04T00:56:17;1.87;;;1.70;;
26484;SDS011;18083;50.560;7.262;2024-02-04T00:58:44;1.80;;;1.30;;
26484;SDS011;18083;50.560;7.262;2024-02-04T01:01:12;0.70;;;0.70;;
26484;SDS011;18083;50.560;7.262;2024-02-04T01:03:39;0.87;;;0.60;;
26484;SDS011;18083;50.560;7.262;2024-02-04T01:06:06;0.60;;;0.60;;
26484;SDS011;18083;50.560;7.262;2024-02-04T01:08:34;0.70;;;0.70;;
26484;SDS011;18083;50.560;7.262;2024-02-04T01:11:01;0.57;;;0.50;;
26484;SDS011;18083;50.560;7.262;2024-02-04T01:13:28;1.90;;;0.80;;
26484;SDS011;18083;50.560;7.262;2024-02-04T01:15:56;0.60;;;0.60;;
26484;SDS011;18083;50.560;7.262;2024-02-04T01:18:23;0.70;;;0.70;;
26484;SDS011;18083;50.560;7.262;2024-02-04T01:20:50;1.07;;;0.50;;
26484;SDS011;18083;50.560;7.262;2024-02-04T01:23:18;0.60;;;0.40;;
26484;SDS011;18083;50.560;7.262;2024-02-04T01:25:46;0.37;;;0.30;;
26484;SDS011;18083;50.560;7.262;2024-02-04T01:28:13;0.33;;;0.30;;
26484;SDS011;18083;50.560;7.262;2024-02-04T01:30:40;1.60;;;0.40;;
26484;SDS011;18083;50.560;7.262;2024-02-04T01:33:07;0.30;;;0.30;;
26484;SDS011;18083;50.560;7.262;2024-02-04T01:35:35;0.25;;;0.20;;
26484;SDS011;18083;50.560;7.262;2024-02-04T01:38:02;0.30;;;0.30;;
26484;SDS011;18083;50.560;7.262;2024-02-04T01:40:30;0.40;;;0.40;;
26484;SDS011;18083;50.560;7.262;2024-02-04T01:42:57;0.20;;;0.20;;
26484;SDS011;18083;50.560;7.262;2024-02-04T01:45:24;0.20;;;0.20;;
26484;SDS011;18083;50.560;7.262;2024-02-04T01:47:52;0.40;;;0.20;;
26484;SDS011;18083;50.560;7.262;2024-02-04T01:50:20;0.27;;;0.27;;
26484;SDS011;18083;50.560;7.262;2024-02-04T01:52:48;0.10;;;0.10;;
26484;SDS011;18083;50.560;7.262;2024-02-04T01:55:15;0.40;;;0.20;;
26484;SDS011;18083;50.560;7.262;2024-02-04T01:57:43;0.10;;;0.10;;
26484;SDS011;18083;50.560;7.262;2024-02-04T02:00:10;0.20;;;0.20;;
26484;SDS011;18083;50.560;7.262;2024-02-04T02:02:39;0.20;;;0.20;;
26484;SDS011;18083;50.560;7.262;2024-02-04T02:05:11;0.00;;;0.00;;
26484;SDS011;18083;50.560;7.262;2024-02-04T02:07:35;0.10;;;0.10;;
26484;SDS011;18083;50.560;7.262;2024-02-04T02:10:03;0.10;;;0.10;;
26484;SDS011;18083;50.560;7.262;2024-02-04T02:12:52;0.10;;;0.10;;
26484;SDS011;18083;50.560;7.262;2024-02-04T02:15:11;0.00;;;0.00;;
26484;SDS011;18083;50.560;7.262;2024-02-04T02:17:42;0.20;;;0.20;;
26484;SDS011;18083;50.560;7.262;2024-02-04T02:20:16;0.27;;;0.10;;
26484;SDS011;18083;50.560;7.262;2024-02-04T02:22:45;1.30;;;0.10;;
26484;SDS011;18083;50.560;7.262;2024-02-04T02:25:14;0.00;;;0.00;;
26484;SDS011;18083;50.560;7.262;2024-02-04T02:27:48;0.53;;;0.10;;
26484;SDS011;18083;50.560;7.262;2024-02-04T02:30:15;0.10;;;0.10;;
26484;SDS011;18083;50.560;7.262;2024-02-04T02:32:48;0.20;;;0.10;;
26484;SDS011;18083;50.560;7.262;2024-02-04T02:35:15;0.00;;;0.00;;
26484;SDS011;18083;50.560;7.262;2024-02-04T02:42:43;0.20;;;0.10;;
26484;SDS011;18083;50.560;7.262;2024-02-04T02:45:11;0.10;;;0.10;;
26484;SDS011;18083;50.560;7.262;2024-02-04T02:47:38;0.30;;;0.20;;
26484;SDS011;18083;50.560;7.262;2024-02-04T02:50:06;0.10;;;0.10;;
26484;SDS011;18083;50.560;7.262;2024-02-04T02:52:34;0.10;;;0.10;;
26484;SDS011;18083;50.560;7.262;2024-02-04T02:55:02;0.47;;;0.20;;
26484;SDS011;18083;50.560;7.262;2024-02-04T02:57:29;0.10;;;0.10;;
26484;SDS011;18083;50.560;7.262;2024-02-04T02:59:56;0.10;;;0.10;;
26484;SDS011;18083;50.560;7.262;2024-02-04T03:02:24;0.07;;;0.07;;
26484;SDS011;18083;50.560;7.262;2024-02-04T03:04:51;2.00;;;0.10;;
26484;SDS011;18083;50.560;7.262;2024-02-04T03:07:18;0.10;;;0.10;;
26484;SDS011;18083;50.560;7.262;2024-02-04T03:09:46;0.17;;;0.17;;
26484;SDS011;18083;50.560;7.262;2024-02-04T03:12:13;0.10;;;0.10;;
26484;SDS011;18083;50.560;7.262;2024-02-04T03:14:41;4.60;;;0.20;;
26484;SDS011;18083;50.560;7.262;2024-02-04T03:17:08;0.10;;;0.10;;
26484;SDS011;18083;50.560;7.262;2024-02-04T03:19:35;0.00;;;0.00;;
26484;SDS011;18083;50.560;7.262;2024-02-04T03:22:03;0.10;;;0.10;;
26484;SDS011;18083;50.560;7.262;2024-02-04T03:24:30;0.30;;;0.20;;
26484;SDS011;18083;50.560;7.262;2024-02-04T03:26:58;0.10;;;0.10;;
26484;SDS011;18083;50.560;7.262;2024-02-04T03:29:25;0.03;;;0.03;;
26484;SDS011;18083;50.560;7.262;2024-02-04T03:31:52;0.10;;;0.10;;
26484;SDS011;18083;50.560;7.262;2024-02-04T03:34:20;0.00;;;0.00;;
26484;SDS011;18083;50.560;7.262;2024-02-04T03:36:48;0.13;;;0.10;;
26484;SDS011;18083;50.560;7.262;2024-02-04T03:39:15;0.10;;;0.10;;
26484;SDS011;18083;50.560;7.262;2024-02-04T03:41:42;0.27;;;0.27;;
26484;SDS011;18083;50.560;7.262;2024-02-04T03:44:10;0.20;;;0.20;;
26484;SDS011;18083;50.560;7.262;2024-02-04T03:46:37;0.10;;;0.10;;
26484;SDS011;18083;50.560;7.262;2024-02-04T03:49:09;0.00;;;0.00;;
26484;SDS011;18083;50.560;7.262;2024-02-04T03:51:36;0.20;;;0.20;;
26484;SDS011;18083;50.560;7.262;2024-02-04T03:54:03;0.05;;;0.05;;
26484;SDS011;18083;50.560;7.262;2024-02-04T03:56:31;0.10;;;0.10;;
26484;SDS011;18083;50.560;7.262;2024-02-04T03:58:58;0.07;;;0.03;;
26484;SDS011;18083;50.560;7.262;2024-02-04T04:01:25;0.10;;;0.10;;
26484;SDS011;18083;50.560;7.262;2024-02-04T04:03:53;0.20;;;0.20;;
26484;SDS011;18083;50.560;7.262;2024-02-04T04:06:20;0.20;;;0.20;;
26484;SDS011;18083;50.560;7.262;2024-02-04T04:08:47;0.20;;;0.10;;
26484;SDS011;18083;50.560;7.262;2024-02-04T04:11:14;0.00;;;0.00;;
26484;SDS011;18083;50.560;7.262;2024-02-04T04:13:42;0.20;;;0.20;;
26484;SDS011;18083;50.560;7.262;2024-02-04T04:16:09;0.00;;;0.00;;
26484;SDS011;18083;50.560;7.262;2024-02-04T04:18:36;0.20;;;0.20;;
26484;SDS011;18083;50.560;7.262;2024-02-04T04:21:05;0.10;;;0.10;;
26484;SDS011;18083;50.560;7.262;2024-02-04T04:23:32;0.27;;;0.10;;
26484;SDS011;18083;50.560;7.262;2024-02-04T04:25:59;0.00;;;0.00;;
26484;SDS011;18083;50.560;7.262;2024-02-04T04:28:26;0.10;;;0.10;;
26484;SDS011;18083;50.560;7.262;2024-02-04T04:30:54;0.07;;;0.07;;
26484;SDS011;18083;50.560;7.262;2024-02-04T04:33:21;0.10;;;0.10;;
26484;SDS011;18083;50.560;7.262;2024-02-04T04:35:49;0.10;;;0.10;;
26484;SDS011;18083;50.560;7.262;2024-02-04T04:38:16;1.07;;;0.87;;
26484;SDS011;18083;50.560;7.262;2024-02-04T04:40:43;1.70;;;0.20;;
26484;SDS011;18083;50.560;7.262;2024-02-04T04:43:11;0.10;;;0.10;;
26484;SDS011;18083;50.560;7.262;2024-02-04T04:45:38;0.90;;;0.10;;
26484;SDS011;18083;50.560;7.262;2024-02-04T04:48:05;0.63;;;0.10;;
26484;SDS011;18083;50.560;7.262;2024-02-04T04:50:34;0.30;;;0.30;;
26484;SDS011;18083;50.560;7.262;2024-02-04T04:53:01;0.30;;;0.20;;
26484;SDS011;18083;50.560;7.262;2024-02-04T04:55:29;0.20;;;0.10;;
26484;SDS011;18083;50.560;7.262;2024-02-04T04:57:58;0.17;;;0.17;;
26484;SDS011;18083;50.560;7.262;2024-02-04T05:00:25;0.10;;;0.10;;
26484;SDS011;18083;50.560;7.262;2024-02-04T05:02:52;0.10;;;0.10;;
26484;SDS011;18083;50.560;7.262;2024-02-04T05:05:20;0.00;;;0.00;;
26484;SDS011;18083;50.560;7.262;2024-02-04T05:07:47;0.10;;;0.10;;
26484;SDS011;18083;50.560;7.262;2024-02-04T05:10:14;0.10;;;0.10;;
26484;SDS011;18083;50.560;7.262;2024-02-04T05:12:41;0.23;;;0.13;;
26484;SDS011;18083;50.560;7.262;2024-02-04T05:15:09;0.10;;;0.10;;
26484;SDS011;18083;50.560;7.262;2024-02-04T05:17:36;1.85;;;0.10;;
26484;SDS011;18083;50.560;7.262;2024-02-04T05:20:04;0.10;;;0.10;;
26484;SDS011;18083;50.560;7.262;2024-02-04T05:22:31;1.40;;;0.20;;
26484;SDS011;18083;50.560;7.262;2024-02-04T05:24:59;0.27;;;0.10;;
26484;SDS011;18083;50.560;7.262;2024-02-04T05:27:26;2.37;;;0.23;;
26484;SDS011;18083;50.560;7.262;2024-02-04T05:29:53;0.10;;;0.10;;
26484;SDS011;18083;50.560;7.262;2024-02-04T05:32:21;0.20;;;0.20;;
26484;SDS011;18083;50.560;7.262;2024-02-04T05:34:48;0.20;;;0.20;;
26484;SDS011;18083;50.560;7.262;2024-02-04T05:37:15;0.13;;;0.13;;
26484;SDS011;18083;50.560;7.262;2024-02-04T05:39:43;0.33;;;0.20;;
26484;SDS011;18083;50.560;7.262;2024-02-04T05:42:10;1.70;;;0.40;;
26484;SDS011;18083;50.560;7.262;2024-02-04T05:44:38;0.77;;;0.17;;
26484;SDS011;18083;50.560;7.262;2024-02-04T05:47:05;0.23;;;0.17;;
26484;SDS011;18083;50.560;7.262;2024-02-04T05:49:33;0.33;;;0.30;;
26484;SDS011;18083;50.560;7.262;2024-02-04T05:52:00;0.83;;;0.30;;
26484;SDS011;18083;50.560;7.262;2024-02-04T05:54:27;0.40;;;0.40;;
26484;SDS011;18083;50.560;7.262;2024-02-04T05:56:55;1.97;;;0.90;;
26484;SDS011;18083;50.560;7.262;2024-02-04T05:59:22;1.13;;;1.03;;
26484;SDS011;18083;50.560;7.262;2024-02-04T06:01:49;1.15;;;1.07;;
26484;SDS011;18083;50.560;7.262;2024-02-04T06:04:17;2.07;;;0.93;;
26484;SDS011;18083;50.560;7.262;2024-02-04T06:06:44;1.13;;;0.90;;
26484;SDS011;18083;50.560;7.262;2024-02-04T06:09:11;0.75;;;0.75;;
26484;SDS011;18083;50.560;7.262;2024-02-04T06:11:39;1.63;;;1.00;;
26484;SDS011;18083;50.560;7.262;2024-02-04T06:14:07;0.50;;;0.40;;
26484;SDS011;18083;50.560;7.262;2024-02-04T06:16:34;0.30;;;0.30;;
26484;SDS011;18083;50.560;7.262;2024-02-04T06:19:01;1.77;;;0.42;;
26484;SDS011;18083;50.560;7.262;2024-02-04T06:21:29;0.90;;;0.57;;
26484;SDS011;18083;50.560;7.262;2024-02-04T06:23:56;2.43;;;0.60;;
26484;SDS011;18083;50.560;7.262;2024-02-04T06:26:23;1.90;;;0.50;;
26484;SDS011;18083;50.560;7.262;2024-02-04T06:28:51;2.07;;;1.17;;
26484;SDS011;18083;50.560;7.262;2024-02-04T06:31:18;2.30;;;2.00;;
26484;SDS011;18083;50.560;7.262;2024-02-04T06:33:45;4.27;;;1.83;;
26484;SDS011;18083;50.560;7.262;2024-02-04T06:36:13;2.80;;;2.57;;
26484;SDS011;18083;50.560;7.262;2024-02-04T06:38:40;2.73;;;2.30;;
26484;SDS011;18083;50.560;7.262;2024-02-04T06:41:07;4.47;;;2.60;;
26484;SDS011;18083;50.560;7.262;2024-02-04T06:43:36;4.50;;;2.97;;
26484;SDS011;18083;50.560;7.262;2024-02-04T06:46:04;4.03;;;2.40;;
26484;SDS011;18083;50.560;7.262;2024-02-04T06:48:31;2.87;;;2.40;;
26484;SDS011;18083;50.560;7.262;2024-02-04T06:50:59;2.85;;;2.15;;
26484;SDS011;18083;50.560;7.262;2024-02-04T06:53:26;1.20;;;1.10;;
26484;SDS011;18083;50.560;7.262;2024-02-04T06:55:53;1.73;;;1.00;;
26484;SDS011;18083;50.560;7.262;2024-02-04T06:58:21;4.83;;;3.93;;
26484;SDS011;18083;50.560;7.262;2024-02-04T07:00:48;7.17;;;4.37;;
26484;SDS011;18083;50.560;7.262;2024-02-04T07:03:15;4.17;;;3.77;;
26484;SDS011;18083;50.560;7.262;2024-02-04T07:05:43;2.23;;;1.73;;
26484;SDS011;18083;50.560;7.262;2024-02-04T07:08:12;2.80;;;2.57;;
26484;SDS011;18083;50.560;7.262;2024-02-04T07:10:40;6.40;;;5.77;;
26484;SDS011;18083;50.560;7.262;2024-02-04T07:13:07;4.80;;;3.30;;
26484;SDS011;18083;50.560;7.262;2024-02-04T07:15:34;5.83;;;4.10;;
26484;SDS011;18083;50.560;7.262;2024-02-04T07:18:02;5.17;;;4.67;;
26484;SDS011;18083;50.560;7.262;2024-02-04T07:20:29;5.33;;;3.87;;
26484;SDS011;18083;50.560;7.262;2024-02-04T07:22:56;2.27;;;2.13;;
26484;SDS011;18083;50.560;7.262;2024-02-04T07:25:24;2.47;;;2.00;;
26484;SDS011;18083;50.560;7.262;2024-02-04T07:27:51;4.30;;;2.33;;
26484;SDS011;18083;50.560;7.262;2024-02-04T07:30:19;2.00;;;1.90;;
26484;SDS011;18083;50.560;7.262;2024-02-04T07:32:47;2.60;;;1.90;;
26484;SDS011;18083;50.560;7.262;2024-02-04T07:35:14;2.13;;;1.67;;
26484;SDS011;18083;50.560;7.262;2024-02-04T07:37:41;3.07;;;1.63;;
26484;SDS011;18083;50.560;7.262;2024-02-04T07:40:09;3.47;;;1.70;;
26484;SDS011;18083;50.560;7.262;2024-02-04T07:42:36;1.07;;;1.00;;
26484;SDS011;18083;50.560;7.262;2024-02-04T07:45:04;2.20;;;1.40;;
26484;SDS011;18083;50.560;7.262;2024-02-04T07:47:33;4.00;;;1.70;;
26484;SDS011;18083;50.560;7.262;2024-02-04T07:50:00;3.93;;;1.60;;
26484;SDS011;18083;50.560;7.262;2024-02-04T07:52:27;2.43;;;1.73;;
26484;SDS011;18083;50.560;7.262;2024-02-04T07:54:55;1.63;;;1.53;;
26484;SDS011;18083;50.560;7.262;2024-02-04T07:57:22;2.37;;;1.57;;
26484;SDS011;18083;50.560;7.262;2024-02-04T07:59:49;2.33;;;1.83;;
26484;SDS011;18083;50.560;7.262;2024-02-04T08:02:18;2.10;;;1.17;;
26484;SDS011;18083;50.560;7.262;2024-02-04T08:04:45;3.80;;;1.43;;
26484;SDS011;18083;50.560;7.262;2024-02-04T08:07:13;1.57;;;0.80;;
26484;SDS011;18083;50.560;7.262;2024-02-04T08:09:40;1.20;;;1.10;;
26484;SDS011;18083;50.560;7.262;2024-02-04T08:12:08;5.00;;;3.63;;
26484;SDS011;18083;50.560;7.262;2024-02-04T08:14:36;2.77;;;1.87;;
26484;SDS011;18083;50.560;7.262;2024-02-04T08:17:03;4.13;;;2.37;;
26484;SDS011;18083;50.560;7.262;2024-02-04T08:19:30;2.73;;;1.50;;
26484;SDS011;18083;50.560;7.262;2024-02-04T08:21:58;3.63;;;2.53;;
26484;SDS011;18083;50.560;7.262;2024-02-04T08:24:25;4.97;;;2.30;;
26484;SDS011;18083;50.560;7.262;2024-02-04T08:26:52;7.58;;;2.70;;
26484;SDS011;18083;50.560;7.262;2024-02-04T08:29:20;2.20;;;1.17;;
26484;SDS011;18083;50.560;7.262;2024-02-04T08:31:47;0.40;;;0.40;;
26484;SDS011;18083;50.560;7.262;2024-02-04T08:34:14;2.30;;;0.77;;
26484;SDS011;18083;50.560;7.262;2024-02-04T08:36:41;1.03;;;0.50;;
26484;SDS011;18083;50.560;7.262;2024-02-04T08:39:09;3.17;;;0.30;;
26484;SDS011;18083;50.560;7.262;2024-02-04T08:41:36;0.63;;;0.47;;
26484;SDS011;18083;50.560;7.262;2024-02-04T08:44:04;3.60;;;1.53;;
26484;SDS011;18083;50.560;7.262;2024-02-04T08:46:31;0.63;;;0.30;;
26484;SDS011;18083;50.560;7.262;2024-02-04T08:48:58;0.47;;;0.20;;
26484;SDS011;18083;50.560;7.262;2024-02-04T08:51:26;0.10;;;0.10;;
26484;SDS011;18083;50.560;7.262;2024-02-04T08:53:53;2.17;;;0.20;;
26484;SDS011;18083;50.560;7.262;2024-02-04T08:56:20;1.45;;;0.30;;
26484;SDS011;18083;50.560;7.262;2024-02-04T08:58:48;0.20;;;0.20;;
26484;SDS011;18083;50.560;7.262;2024-02-04T09:01:15;0.20;;;0.20;;
26484;SDS011;18083;50.560;7.262;2024-02-04T09:03:42;0.10;;;0.10;;
26484;SDS011;18083;50.560;7.262;2024-02-04T09:06:10;0.33;;;0.33;;
26484;SDS011;18083;50.560;7.262;2024-02-04T09:08:37;0.10;;;0.10;;
26484;SDS011;18083;50.560;7.262;2024-02-04T09:11:04;0.20;;;0.20;;
26484;SDS011;18083;50.560;7.262;2024-02-04T09:13:32;0.30;;;0.30;;
26484;SDS011;18083;50.560;7.262;2024-02-04T09:15:59;0.33;;;0.30;;
26484;SDS011;18083;50.560;7.262;2024-02-04T09:18:26;0.37;;;0.37;;
26484;SDS011;18083;50.560;7.262;2024-02-04T09:20:54;0.33;;;0.33;;
26484;SDS011;18083;50.560;7.262;2024-02-04T09:23:21;0.45;;;0.40;;
26484;SDS011;18083;50.560;7.262;2024-02-04T09:25:48;0.30;;;0.30;;
26484;SDS011;18083;50.560;7.262;2024-02-04T09:28:16;0.20;;;0.20;;
26484;SDS011;18083;50.560;7.262;2024-02-04T09:30:43;0.50;;;0.30;;
26484;SDS011;18083;50.560;7.262;2024-02-04T09:33:10;0.70;;;0.25;;
26484;SDS011;18083;50.560;7.262;2024-02-04T09:35:38;0.10;;;0.10;;
26484;SDS011;18083;50.560;7.262;2024-02-04T09:38:05;0.25;;;0.25;;
26484;SDS011;18083;50.560;7.262;2024-02-04T09:40:32;0.20;;;0.20;;
26484;SDS011;18083;50.560;7.262;2024-02-04T09:43:00;0.10;;;0.10;;
26484;SDS011;18083;50.560;7.262;2024-02-04T09:45:28;0.30;;;0.30;;
26484;SDS011;18083;50.560;7.262;2024-02-04T09:47:57;0.28;;;0.28;;
26484;SDS011;18083;50.560;7.262;2024-02-04T09:50:25;0.25;;;0.25;;
26484;SDS011;18083;50.560;7.262;2024-02-04T09:52:53;0.20;;;0.20;;
26484;SDS011;18083;50.560;7.262;2024-02-04T09:55:21;0.10;;;0.10;;
26484;SDS011;18083;50.560;7.262;2024-02-04T09:57:49;0.20;;;0.20;;
26484;SDS011;18083;50.560;7.262;2024-02-04T10:00:18;1.12;;;0.40;;
26484;SDS011;18083;50.560;7.262;2024-02-04T10:02:47;0.20;;;0.20;;
26484;SDS011;18083;50.560;7.262;2024-02-04T10:05:15;0.23;;;0.23;;
26484;SDS011;18083;50.560;7.262;2024-02-04T10:07:42;2.08;;;0.25;;
26484;SDS011;18083;50.560;7.262;2024-02-04T10:10:10;1.30;;;0.45;;
26484;SDS011;18083;50.560;7.262;2024-02-04T10:12:38;0.95;;;0.65;;
26484;SDS011;18083;50.560;7.262;2024-02-04T10:15:07;0.28;;;0.23;;
26484;SDS011;18083;50.560;7.262;2024-02-04T10:17:35;0.30;;;0.30;;
26484;SDS011;18083;50.560;7.262;2024-02-04T10:20:02;0.10;;;0.10;;
26484;SDS011;18083;50.560;7.262;2024-02-04T10:22:30;0.17;;;0.17;;
26484;SDS011;18083;50.560;7.262;2024-02-04T10:25:10;0.65;;;0.50;;
26484;SDS011;18083;50.560;7.262;2024-02-04T10:27:35;0.28;;;0.28;;
26484;SDS011;18083;50.560;7.262;2024-02-04T10:30:02;0.85;;;0.50;;
26484;SDS011;18083;50.560;7.262;2024-02-04T10:32:30;1.22;;;0.50;;
26484;SDS011;18083;50.560;7.262;2024-02-04T10:34:58;0.53;;;0.40;;
26484;SDS011;18083;50.560;7.262;2024-02-04T10:37:27;0.20;;;0.20;;
26484;SDS011;18083;50.560;7.262;2024-02-04T10:39:54;0.37;;;0.30;;
26484;SDS011;18083;50.560;7.262;2024-02-04T10:42:27;1.17;;;0.20;;
26484;SDS011;18083;50.560;7.262;2024-02-04T10:44:53;0.30;;;0.30;;
26484;SDS011;18083;50.560;7.262;2024-02-04T10:47:25;0.10;;;0.10;;
26484;SDS011;18083;50.560;7.262;2024-02-04T10:49:52;0.20;;;0.20;;
26484;SDS011;18083;50.560;7.262;2024-02-04T10:52:20;0.30;;;0.20;;
26484;SDS011;18083;50.560;7.262;2024-02-04T10:54:47;0.68;;;0.30;;
26484;SDS011;18083;50.560;7.262;2024-02-04T10:57:19;0.30;;;0.30;;
26484;SDS011;18083;50.560;7.262;2024-02-04T10:59:44;0.20;;;0.20;;
26484;SDS011;18083;50.560;7.262;2024-02-04T11:02:12;0.10;;;0.10;;
26484;SDS011;18083;50.560;7.262;2024-02-04T11:04:39;0.25;;;0.25;;
26484;SDS011;18083;50.560;7.262;2024-02-04T11:07:09;0.23;;;0.10;;
26484;SDS011;18083;50.560;7.262;2024-02-04T11:09:36;0.23;;;0.23;;
26484;SDS011;18083;50.560;7.262;2024-02-04T11:12:04;0.23;;;0.20;;
26484;SDS011;18083;50.560;7.262;2024-02-04T11:14:33;0.30;;;0.13;;
26484;SDS011;18083;50.560;7.262;2024-02-04T11:17:07;0.25;;;0.23;;
26484;SDS011;18083;50.560;7.262;2024-02-04T11:19:42;0.37;;;0.37;;
26484;SDS011;18083;50.560;7.262;2024-02-04T11:22:14;0.50;;;0.33;;
26484;SDS011;18083;50.560;7.262;2024-02-04T11:24:51;0.20;;;0.20;;
26484;SDS011;18083;50.560;7.262;2024-02-04T11:27:13;3.37;;;1.80;;
26484;SDS011;18083;50.560;7.262;2024-02-04T11:29:41;0.42;;;0.42;;
26484;SDS011;18083;50.560;7.262;2024-02-04T11:32:09;0.20;;;0.20;;
26484;SDS011;18083;50.560;7.262;2024-02-04T11:34:37;0.20;;;0.20;;
26484;SDS011;18083;50.560;7.262;2024-02-04T11:37:16;1.40;;;0.30;;
26484;SDS011;18083;50.560;7.262;2024-02-04T11:39:57;0.20;;;0.20;;
26484;SDS011;18083;50.560;7.262;2024-02-04T11:42:23;0.20;;;0.20;;
26484;SDS011;18083;50.560;7.262;2024-02-04T11:45:05;0.65;;;0.33;;
26484;SDS011;18083;50.560;7.262;2024-02-04T11:47:23;0.20;;;0.20;;
26484;SDS011;18083;50.560;7.262;2024-02-04T11:49:57;0.10;;;0.10;;
26484;SDS011;18083;50.560;7.262;2024-02-04T11:52:28;0.10;;;0.10;;
26484;SDS011;18083;50.560;7.262;2024-02-04T11:54:55;0.10;;;0.10;;
26484;SDS011;18083;50.560;7.262;2024-02-04T11:57:23;0.53;;;0.20;;
26484;SDS011;18083;50.560;7.262;2024-02-04T11:59:53;0.20;;;0.20;;
26484;SDS011;18083;50.560;7.262;2024-02-04T12:02:24;0.10;;;0.10;;
26484;SDS011;18083;50.560;7.262;2024-02-04T12:04:51;2.37;;;0.30;;
26484;SDS011;18083;50.560;7.262;2024-02-04T12:07:19;0.20;;;0.20;;
26484;SDS011;18083;50.560;7.262;2024-02-04T12:09:46;0.10;;;0.10;;
26484;SDS011;18083;50.560;7.262;2024-02-04T12:12:14;1.25;;;0.20;;
26484;SDS011;18083;50.560;7.262;2024-02-04T12:14:42;0.20;;;0.20;;
26484;SDS011;18083;50.560;7.262;2024-02-04T12:17:10;0.10;;;0.10;;
26484;SDS011;18083;50.560;7.262;2024-02-04T12:19:37;0.20;;;0.20;;
26484;SDS011;18083;50.560;7.262;2024-02-04T12:22:05;0.30;;;0.20;;
26484;SDS011;18083;50.560;7.262;2024-02-04T12:24:34;0.60;;;0.17;;
26484;SDS011;18083;50.560;7.262;2024-02-04T12:27:03;0.10;;;0.10;;
26484;SDS011;18083;50.560;7.262;2024-02-04T12:29:31;0.25;;;0.20;;
26484;SDS011;18083;50.560;7.262;2024-02-04T12:31:59;2.37;;;0.95;;
26484;SDS011;18083;50.560;7.262;2024-02-04T12:37:15;0.30;;;0.25;;
26484;SDS011;18083;50.560;7.262;2024-02-04T12:39:42;0.10;;;0.10;;
26484;SDS011;18083;50.560;7.262;2024-02-04T12:48:06;0.30;;;0.30;;
26484;SDS011;18083;50.560;7.262;2024-02-04T12:50:36;0.17;;;0.17;;
26484;SDS011;18083;50.560;7.262;2024-02-04T12:53:03;0.30;;;0.28;;
26484;SDS011;18083;50.560;7.262;2024-02-04T12:55:32;0.10;;;0.10;;
26484;SDS011;18083;50.560;7.262;2024-02-04T12:58:10;0.17;;;0.17;;
26484;SDS011;18083;50.560;7.262;2024-02-04T13:00:38;0.10;;;0.10;;
26484;SDS011;18083;50.560;7.262;2024-02-04T13:03:06;0.20;;;0.20;;
26484;SDS011;18083;50.560;7.262;2024-02-04T13:05:37;0.20;;;0.20;;
26484;SDS011;18083;50.560;7.262;2024-02-04T13:08:05;1.98;;;0.15;;
26484;SDS011;18083;50.560;7.262;2024-02-04T13:10:34;0.42;;;0.42;;
26484;SDS011;18083;50.560;7.262;2024-02-04T13:15:33;0.28;;;0.25;;
26484;SDS011;18083;50.560;7.262;2024-02-04T13:18:00;0.20;;;0.20;;
26484;SDS011;18083;50.560;7.262;2024-02-04T13:20:27;0.53;;;0.23;;
26484;SDS011;18083;50.560;7.262;2024-02-04T13:22:55;0.13;;;0.13;;
26484;SDS011;18083;50.560;7.262;2024-02-04T13:25:23;0.20;;;0.20;;
26484;SDS011;18083;50.560;7.262;2024-02-04T13:27:50;0.20;;;0.20;;
26484;SDS011;18083;50.560;7.262;2024-02-04T13:30:18;0.20;;;0.20;;
26484;SDS011;18083;50.560;7.262;2024-02-04T13:32:45;0.13;;;0.13;;
26484;SDS011;18083;50.560;7.262;2024-02-04T13:35:13;0.55;;;0.20;;
26484;SDS011;18083;50.560;7.262;2024-02-04T13:37:43;0.37;;;0.30;;
26484;SDS011;18083;50.560;7.262;2024-02-04T13:40:15;0.98;;;0.20;;
26484;SDS011;18083;50.560;7.262;2024-02-04T13:42:42;0.23;;;0.23;;
26484;SDS011;18083;50.560;7.262;2024-02-04T13:45:10;0.23;;;0.23;;
26484;SDS011;18083;50.560;7.262;2024-02-04T13:47:39;0.40;;;0.25;;
26484;SDS011;18083;50.560;7.262;2024-02-04T13:50:06;0.10;;;0.10;;
26484;SDS011;18083;50.560;7.262;2024-02-04T13:52:34;0.35;;;0.30;;
26484;SDS011;18083;50.560;7.262;2024-02-04T13:55:02;0.10;;;0.10;;
26484;SDS011;18083;50.560;7.262;2024-02-04T13:57:31;4.33;;;0.40;;
26484;SDS011;18083;50.560;7.262;2024-02-04T13:59:59;0.10;;;0.10;;
26484;SDS011;18083;50.560;7.262;2024-02-04T14:02:26;1.17;;;0.28;;
26484;SDS011;18083;50.560;7.262;2024-02-04T14:04:56;0.30;;;0.30;;
26484;SDS011;18083;50.560;7.262;2024-02-04T14:07:24;0.10;;;0.10;;
26484;SDS011;18083;50.560;7.262;2024-02-04T14:09:52;1.12;;;0.30;;
26484;SDS011;18083;50.560;7.262;2024-02-04T14:12:19;0.33;;;0.30;;
26484;SDS011;18083;50.560;7.262;2024-02-04T14:14:46;0.25;;;0.23;;
26484;SDS011;18083;50.560;7.262;2024-02-04T14:17:14;0.55;;;0.37;;
26484;SDS011;18083;50.560;7.262;2024-02-04T14:19:41;0.15;;;0.15;;
26484;SDS011;18083;50.560;7.262;2024-02-04T14:22:10;0.30;;;0.30;;
26484;SDS011;18083;50.560;7.262;2024-02-04T14:24:37;0.20;;;0.20;;
26484;SDS011;18083;50.560;7.262;2024-02-04T14:27:05;0.57;;;0.57;;
26484;SDS011;18083;50.560;7.262;2024-02-04T14:29:32;0.40;;;0.28;;
26484;SDS011;18083;50.560;7.262;2024-02-04T14:32:00;2.10;;;0.40;;
26484;SDS011;18083;50.560;7.262;2024-02-04T14:34:27;0.20;;;0.20;;
26484;SDS011;18083;50.560;7.262;2024-02-04T14:36:54;0.10;;;0.10;;
26484;SDS011;18083;50.560;7.262;2024-02-04T14:39:22;0.20;;;0.20;;
26484;SDS011;18083;50.560;7.262;2024-02-04T14:41:49;0.20;;;0.20;;
26484;SDS011;18083;50.560;7.262;2024-02-04T14:44:16;0.25;;;0.20;;
26484;SDS011;18083;50.560;7.262;2024-02-04T14:46:44;0.20;;;0.20;;
26484;SDS011;18083;50.560;7.262;2024-02-04T14:49:12;0.10;;;0.10;;
26484;SDS011;18083;50.560;7.262;2024-02-04T14:51:39;0.28;;;0.25;;
26484;SDS011;18083;50.560;7.262;2024-02-04T14:54:07;0.47;;;0.25;;
26484;SDS011;18083;50.560;7.262;2024-02-04T14:56:38;0.35;;;0.10;;
26484;SDS011;18083;50.560;7.262;2024-02-04T14:59:07;0.20;;;0.20;;
26484;SDS011;18083;50.560;7.262;2024-02-04T15:01:34;0.20;;;0.20;;
26484;SDS011;18083;50.560;7.262;2024-02-04T15:04:02;0.20;;;0.20;;
26484;SDS011;18083;50.560;7.262;2024-02-04T15:06:35;0.10;;;0.10;;
26484;SDS011;18083;50.560;7.262;2024-02-04T15:09:02;0.20;;;0.20;;